sensor_id;sensor_type;location;lat;lon;timestamp;P1;durP1;ratioP1;P2;durP2;ratioP2
12687;SDS011;6408;59.388;17.798;2022-12-22T00:02:03;9.13;;;2.90;;
12687;SDS011;6408;59.388;17.798;2022-12-22T00:04:52;6.47;;;2.40;;
12687;SDS011;6408;59.388;17.798;2022-12-22T00:07:39;9.73;;;3.13;;
12687;SDS011;6408;59.388;17.798;2022-12-22T00:10:23;6.33;;;2.20;;
12687;SDS011;6408;59.388;17.798;2022-12-22T00:13:08;8.20;;;2.60;;
12687;SDS011;6408;59.388;17.798;2022-12-22T00:15:55;6.97;;;2.30;;
12687;SDS011;6408;59.388;17.798;2022-12-22T00:18:40;9.80;;;2.37;;
12687;SDS011;6408;59.388;17.798;2022-12-22T00:21:25;6.50;;;3.23;;
12687;SDS011;6408;59.388;17.798;2022-12-22T00:24:14;7.47;;;2.20;;
12687;SDS011;6408;59.388;17.798;2022-12-22T00:26:58;6.90;;;2.67;;
12687;SDS011;6408;59.388;17.798;2022-12-22T00:29:43;6.33;;;2.07;;
12687;SDS011;6408;59.388;17.798;2022-12-22T00:32:31;5.93;;;2.43;;
12687;SDS011;6408;59.388;17.798;2022-12-22T00:35:17;6.07;;;2.40;;
12687;SDS011;6408;59.388;17.798;2022-12-22T00:38:08;6.37;;;2.30;;
12687;SDS011;6408;59.388;17.798;2022-12-22T00:41:02;8.13;;;2.63;;
12687;SDS011;6408;59.388;17.798;2022-12-22T00:43:47;10.70;;;2.80;;
12687;SDS011;6408;59.388;17.798;2022-12-22T00:46:31;7.83;;;2.23;;
12687;SDS011;6408;59.388;17.798;2022-12-22T00:49:18;6.00;;;2.53;;
12687;SDS011;6408;59.388;17.798;2022-12-22T00:52:06;7.33;;;1.83;;
12687;SDS011;6408;59.388;17.798;2022-12-22T00:54:51;8.93;;;2.17;;
12687;SDS011;6408;59.388;17.798;2022-12-22T00:57:38;4.87;;;2.10;;
12687;SDS011;6408;59.388;17.798;2022-12-22T01:00:26;5.80;;;2.07;;
12687;SDS011;6408;59.388;17.798;2022-12-22T01:03:11;5.13;;;1.70;;
12687;SDS011;6408;59.388;17.798;2022-12-22T01:05:57;6.60;;;2.27;;
12687;SDS011;6408;59.388;17.798;2022-12-22T01:08:43;5.30;;;1.70;;
12687;SDS011;6408;59.388;17.798;2022-12-22T01:11:28;5.20;;;1.93;;
12687;SDS011;6408;59.388;17.798;2022-12-22T01:14:15;4.40;;;1.77;;
12687;SDS011;6408;59.388;17.798;2022-12-22T01:17:00;7.87;;;2.20;;
12687;SDS011;6408;59.388;17.798;2022-12-22T01:19:44;6.47;;;2.37;;
12687;SDS011;6408;59.388;17.798;2022-12-22T01:22:29;7.57;;;1.70;;
12687;SDS011;6408;59.388;17.798;2022-12-22T01:25:15;4.30;;;1.90;;
12687;SDS011;6408;59.388;17.798;2022-12-22T01:28:01;4.07;;;1.60;;
12687;SDS011;6408;59.388;17.798;2022-12-22T01:30:47;7.20;;;1.90;;
12687;SDS011;6408;59.388;17.798;2022-12-22T01:33:32;4.83;;;1.63;;
12687;SDS011;6408;59.388;17.798;2022-12-22T01:36:16;5.27;;;1.90;;
12687;SDS011;6408;59.388;17.798;2022-12-22T01:39:01;7.93;;;2.10;;
12687;SDS011;6408;59.388;17.798;2022-12-22T01:41:46;5.27;;;1.80;;
12687;SDS011;6408;59.388;17.798;2022-12-22T01:44:32;6.83;;;1.80;;
12687;SDS011;6408;59.388;17.798;2022-12-22T01:50:20;5.30;;;1.50;;
12687;SDS011;6408;59.388;17.798;2022-12-22T01:53:09;4.77;;;1.63;;
12687;SDS011;6408;59.388;17.798;2022-12-22T01:55:59;8.20;;;1.67;;
12687;SDS011;6408;59.388;17.798;2022-12-22T01:58:45;5.37;;;1.70;;
12687;SDS011;6408;59.388;17.798;2022-12-22T02:01:32;5.67;;;1.70;;
12687;SDS011;6408;59.388;17.798;2022-12-22T02:04:20;4.57;;;1.47;;
12687;SDS011;6408;59.388;17.798;2022-12-22T02:07:12;4.63;;;1.43;;
12687;SDS011;6408;59.388;17.798;2022-12-22T02:10:21;4.07;;;1.50;;
12687;SDS011;6408;59.388;17.798;2022-12-22T02:13:21;8.33;;;1.63;;
12687;SDS011;6408;59.388;17.798;2022-12-22T02:16:10;5.83;;;1.50;;
12687;SDS011;6408;59.388;17.798;2022-12-22T02:19:01;4.80;;;1.80;;
12687;SDS011;6408;59.388;17.798;2022-12-22T02:21:58;4.17;;;1.57;;
12687;SDS011;6408;59.388;17.798;2022-12-22T02:24:56;5.27;;;1.47;;
12687;SDS011;6408;59.388;17.798;2022-12-22T02:27:46;3.07;;;1.40;;
12687;SDS011;6408;59.388;17.798;2022-12-22T02:30:34;4.83;;;1.43;;
12687;SDS011;6408;59.388;17.798;2022-12-22T02:33:19;3.87;;;1.53;;
12687;SDS011;6408;59.388;17.798;2022-12-22T02:36:06;4.80;;;1.60;;
12687;SDS011;6408;59.388;17.798;2022-12-22T02:39:00;4.80;;;1.97;;
12687;SDS011;6408;59.388;17.798;2022-12-22T02:41:53;3.20;;;1.57;;
12687;SDS011;6408;59.388;17.798;2022-12-22T02:44:46;6.43;;;1.80;;
12687;SDS011;6408;59.388;17.798;2022-12-22T02:47:41;6.90;;;1.60;;
12687;SDS011;6408;59.388;17.798;2022-12-22T02:50:31;4.63;;;1.50;;
12687;SDS011;6408;59.388;17.798;2022-12-22T02:53:20;4.13;;;1.33;;
12687;SDS011;6408;59.388;17.798;2022-12-22T02:56:06;4.93;;;1.47;;
12687;SDS011;6408;59.388;17.798;2022-12-22T02:58:52;5.33;;;1.50;;
12687;SDS011;6408;59.388;17.798;2022-12-22T03:01:40;5.07;;;1.50;;
12687;SDS011;6408;59.388;17.798;2022-12-22T03:04:28;4.57;;;1.80;;
12687;SDS011;6408;59.388;17.798;2022-12-22T03:07:12;6.30;;;1.50;;
12687;SDS011;6408;59.388;17.798;2022-12-22T03:09:57;4.03;;;1.40;;
12687;SDS011;6408;59.388;17.798;2022-12-22T03:12:41;7.07;;;1.70;;
12687;SDS011;6408;59.388;17.798;2022-12-22T03:15:26;5.57;;;1.53;;
12687;SDS011;6408;59.388;17.798;2022-12-22T03:18:12;5.40;;;1.47;;
12687;SDS011;6408;59.388;17.798;2022-12-22T03:20:57;13.23;;;1.87;;
12687;SDS011;6408;59.388;17.798;2022-12-22T03:23:42;6.47;;;1.57;;
12687;SDS011;6408;59.388;17.798;2022-12-22T03:26:26;6.43;;;1.60;;
12687;SDS011;6408;59.388;17.798;2022-12-22T03:28:55;5.07;;;1.80;;
12687;SDS011;6408;59.388;17.798;2022-12-22T03:31:22;4.47;;;1.60;;
12687;SDS011;6408;59.388;17.798;2022-12-22T03:33:51;4.83;;;1.50;;
12687;SDS011;6408;59.388;17.798;2022-12-22T03:36:19;5.20;;;1.70;;
12687;SDS011;6408;59.388;17.798;2022-12-22T03:38:47;3.27;;;1.70;;
12687;SDS011;6408;59.388;17.798;2022-12-22T03:41:14;6.80;;;1.60;;
12687;SDS011;6408;59.388;17.798;2022-12-22T03:43:55;5.63;;;1.97;;
12687;SDS011;6408;59.388;17.798;2022-12-22T03:46:40;4.23;;;1.80;;
12687;SDS011;6408;59.388;17.798;2022-12-22T03:49:09;2.20;;;1.40;;
12687;SDS011;6408;59.388;17.798;2022-12-22T03:51:39;4.20;;;1.40;;
12687;SDS011;6408;59.388;17.798;2022-12-22T03:54:08;2.80;;;1.63;;
12687;SDS011;6408;59.388;17.798;2022-12-22T03:56:37;3.57;;;1.43;;
12687;SDS011;6408;59.388;17.798;2022-12-22T03:59:05;7.33;;;1.70;;
12687;SDS011;6408;59.388;17.798;2022-12-22T04:01:35;6.20;;;1.70;;
12687;SDS011;6408;59.388;17.798;2022-12-22T04:04:04;5.10;;;1.80;;
12687;SDS011;6408;59.388;17.798;2022-12-22T04:06:33;4.67;;;1.70;;
12687;SDS011;6408;59.388;17.798;2022-12-22T04:09:01;3.67;;;1.40;;
12687;SDS011;6408;59.388;17.798;2022-12-22T04:11:29;4.20;;;1.70;;
12687;SDS011;6408;59.388;17.798;2022-12-22T04:14:14;2.47;;;1.30;;
12687;SDS011;6408;59.388;17.798;2022-12-22T04:16:41;4.70;;;1.47;;
12687;SDS011;6408;59.388;17.798;2022-12-22T04:19:08;7.17;;;1.90;;
12687;SDS011;6408;59.388;17.798;2022-12-22T04:21:38;6.97;;;1.77;;
12687;SDS011;6408;59.388;17.798;2022-12-22T04:24:05;4.27;;;1.70;;
12687;SDS011;6408;59.388;17.798;2022-12-22T04:26:33;2.83;;;1.50;;
12687;SDS011;6408;59.388;17.798;2022-12-22T04:29:01;2.67;;;1.73;;
12687;SDS011;6408;59.388;17.798;2022-12-22T04:31:29;4.10;;;1.67;;
12687;SDS011;6408;59.388;17.798;2022-12-22T04:33:57;3.33;;;1.40;;
12687;SDS011;6408;59.388;17.798;2022-12-22T04:36:24;4.37;;;1.40;;
12687;SDS011;6408;59.388;17.798;2022-12-22T04:38:54;4.43;;;1.43;;
12687;SDS011;6408;59.388;17.798;2022-12-22T04:41:22;3.17;;;1.47;;
12687;SDS011;6408;59.388;17.798;2022-12-22T04:43:49;2.50;;;1.30;;
12687;SDS011;6408;59.388;17.798;2022-12-22T04:46:17;2.10;;;1.33;;
12687;SDS011;6408;59.388;17.798;2022-12-22T04:48:44;2.93;;;1.10;;
12687;SDS011;6408;59.388;17.798;2022-12-22T04:51:12;2.73;;;1.30;;
12687;SDS011;6408;59.388;17.798;2022-12-22T04:53:40;3.00;;;1.50;;
12687;SDS011;6408;59.388;17.798;2022-12-22T04:56:09;2.30;;;1.30;;
12687;SDS011;6408;59.388;17.798;2022-12-22T04:58:36;2.13;;;1.63;;
12687;SDS011;6408;59.388;17.798;2022-12-22T05:01:07;1.63;;;1.07;;
12687;SDS011;6408;59.388;17.798;2022-12-22T05:03:35;3.57;;;1.50;;
12687;SDS011;6408;59.388;17.798;2022-12-22T05:06:03;2.60;;;1.30;;
12687;SDS011;6408;59.388;17.798;2022-12-22T05:08:31;2.17;;;1.20;;
12687;SDS011;6408;59.388;17.798;2022-12-22T05:10:58;4.23;;;1.23;;
12687;SDS011;6408;59.388;17.798;2022-12-22T05:13:28;2.23;;;1.20;;
12687;SDS011;6408;59.388;17.798;2022-12-22T05:16:01;3.13;;;1.27;;
12687;SDS011;6408;59.388;17.798;2022-12-22T05:18:29;3.93;;;1.27;;
12687;SDS011;6408;59.388;17.798;2022-12-22T05:20:56;1.87;;;1.10;;
12687;SDS011;6408;59.388;17.798;2022-12-22T05:23:24;2.83;;;1.23;;
12687;SDS011;6408;59.388;17.798;2022-12-22T05:25:51;1.63;;;0.97;;
12687;SDS011;6408;59.388;17.798;2022-12-22T05:28:18;2.40;;;1.47;;
12687;SDS011;6408;59.388;17.798;2022-12-22T05:30:47;4.13;;;1.60;;
12687;SDS011;6408;59.388;17.798;2022-12-22T05:33:15;2.03;;;1.30;;
12687;SDS011;6408;59.388;17.798;2022-12-22T05:35:42;2.90;;;1.40;;
12687;SDS011;6408;59.388;17.798;2022-12-22T05:38:10;3.77;;;1.97;;
12687;SDS011;6408;59.388;17.798;2022-12-22T05:40:37;2.73;;;1.53;;
12687;SDS011;6408;59.388;17.798;2022-12-22T05:43:04;1.40;;;1.27;;
12687;SDS011;6408;59.388;17.798;2022-12-22T05:45:32;2.70;;;1.40;;
12687;SDS011;6408;59.388;17.798;2022-12-22T05:48:01;5.17;;;1.50;;
12687;SDS011;6408;59.388;17.798;2022-12-22T05:50:29;4.33;;;1.40;;
12687;SDS011;6408;59.388;17.798;2022-12-22T05:52:56;4.43;;;1.50;;
12687;SDS011;6408;59.388;17.798;2022-12-22T05:55:24;2.03;;;1.60;;
12687;SDS011;6408;59.388;17.798;2022-12-22T05:57:52;4.43;;;1.50;;
12687;SDS011;6408;59.388;17.798;2022-12-22T06:00:20;4.43;;;1.50;;
12687;SDS011;6408;59.388;17.798;2022-12-22T06:02:48;3.63;;;1.60;;
12687;SDS011;6408;59.388;17.798;2022-12-22T06:05:17;2.37;;;1.27;;
12687;SDS011;6408;59.388;17.798;2022-12-22T06:07:45;2.33;;;1.33;;
12687;SDS011;6408;59.388;17.798;2022-12-22T06:10:12;3.50;;;1.60;;
12687;SDS011;6408;59.388;17.798;2022-12-22T06:12:40;3.43;;;1.73;;
12687;SDS011;6408;59.388;17.798;2022-12-22T06:15:09;2.27;;;1.30;;
12687;SDS011;6408;59.388;17.798;2022-12-22T06:17:38;2.60;;;1.40;;
12687;SDS011;6408;59.388;17.798;2022-12-22T06:20:06;3.10;;;2.13;;
12687;SDS011;6408;59.388;17.798;2022-12-22T06:22:36;6.80;;;3.77;;
12687;SDS011;6408;59.388;17.798;2022-12-22T06:25:04;5.77;;;3.40;;
12687;SDS011;6408;59.388;17.798;2022-12-22T06:27:32;5.03;;;2.20;;
12687;SDS011;6408;59.388;17.798;2022-12-22T06:29:59;4.37;;;2.90;;
12687;SDS011;6408;59.388;17.798;2022-12-22T06:32:27;6.87;;;2.77;;
12687;SDS011;6408;59.388;17.798;2022-12-22T06:34:54;5.60;;;1.90;;
12687;SDS011;6408;59.388;17.798;2022-12-22T06:37:22;2.47;;;1.60;;
12687;SDS011;6408;59.388;17.798;2022-12-22T06:39:51;4.07;;;1.87;;
12687;SDS011;6408;59.388;17.798;2022-12-22T06:42:18;4.27;;;1.90;;
12687;SDS011;6408;59.388;17.798;2022-12-22T06:45:04;3.37;;;2.40;;
12687;SDS011;6408;59.388;17.798;2022-12-22T06:47:32;3.87;;;2.20;;
12687;SDS011;6408;59.388;17.798;2022-12-22T06:49:59;3.27;;;2.00;;
12687;SDS011;6408;59.388;17.798;2022-12-22T06:52:26;6.47;;;3.10;;
12687;SDS011;6408;59.388;17.798;2022-12-22T06:54:56;8.47;;;4.03;;
12687;SDS011;6408;59.388;17.798;2022-12-22T06:57:23;3.53;;;2.00;;
12687;SDS011;6408;59.388;17.798;2022-12-22T06:59:50;5.47;;;2.53;;
12687;SDS011;6408;59.388;17.798;2022-12-22T07:02:17;2.23;;;2.03;;
12687;SDS011;6408;59.388;17.798;2022-12-22T07:04:45;3.37;;;1.63;;
12687;SDS011;6408;59.388;17.798;2022-12-22T07:07:12;1.87;;;1.60;;
12687;SDS011;6408;59.388;17.798;2022-12-22T07:09:40;2.27;;;1.70;;
12687;SDS011;6408;59.388;17.798;2022-12-22T07:12:08;1.70;;;1.40;;
12687;SDS011;6408;59.388;17.798;2022-12-22T07:14:36;1.77;;;1.47;;
12687;SDS011;6408;59.388;17.798;2022-12-22T07:17:03;5.63;;;1.83;;
12687;SDS011;6408;59.388;17.798;2022-12-22T07:19:30;2.63;;;1.30;;
12687;SDS011;6408;59.388;17.798;2022-12-22T07:21:58;1.93;;;1.53;;
12687;SDS011;6408;59.388;17.798;2022-12-22T07:24:25;2.50;;;1.60;;
12687;SDS011;6408;59.388;17.798;2022-12-22T07:26:53;2.97;;;1.80;;
12687;SDS011;6408;59.388;17.798;2022-12-22T07:29:22;3.10;;;1.70;;
12687;SDS011;6408;59.388;17.798;2022-12-22T07:31:50;2.03;;;1.73;;
12687;SDS011;6408;59.388;17.798;2022-12-22T07:34:17;3.67;;;2.07;;
12687;SDS011;6408;59.388;17.798;2022-12-22T07:36:44;3.40;;;1.90;;
12687;SDS011;6408;59.388;17.798;2022-12-22T07:39:12;4.90;;;1.97;;
12687;SDS011;6408;59.388;17.798;2022-12-22T07:41:40;4.40;;;2.10;;
12687;SDS011;6408;59.388;17.798;2022-12-22T07:44:26;3.00;;;2.17;;
12687;SDS011;6408;59.388;17.798;2022-12-22T07:46:53;3.03;;;1.80;;
12687;SDS011;6408;59.388;17.798;2022-12-22T07:49:21;3.93;;;2.63;;
12687;SDS011;6408;59.388;17.798;2022-12-22T07:52:05;3.23;;;2.07;;
12687;SDS011;6408;59.388;17.798;2022-12-22T07:54:33;3.27;;;1.47;;
12687;SDS011;6408;59.388;17.798;2022-12-22T07:57:01;3.10;;;1.63;;
12687;SDS011;6408;59.388;17.798;2022-12-22T07:59:30;3.07;;;1.40;;
12687;SDS011;6408;59.388;17.798;2022-12-22T08:01:58;1.90;;;1.30;;
12687;SDS011;6408;59.388;17.798;2022-12-22T08:04:25;1.67;;;1.03;;
12687;SDS011;6408;59.388;17.798;2022-12-22T08:06:53;3.57;;;1.30;;
12687;SDS011;6408;59.388;17.798;2022-12-22T08:09:21;2.53;;;1.60;;
12687;SDS011;6408;59.388;17.798;2022-12-22T08:11:48;4.10;;;1.57;;
12687;SDS011;6408;59.388;17.798;2022-12-22T08:14:16;7.23;;;1.90;;
12687;SDS011;6408;59.388;17.798;2022-12-22T08:16:45;4.63;;;1.27;;
12687;SDS011;6408;59.388;17.798;2022-12-22T08:19:12;3.93;;;1.67;;
12687;SDS011;6408;59.388;17.798;2022-12-22T08:21:40;2.73;;;1.57;;
12687;SDS011;6408;59.388;17.798;2022-12-22T08:24:08;2.70;;;1.43;;
12687;SDS011;6408;59.388;17.798;2022-12-22T08:26:36;2.17;;;1.30;;
12687;SDS011;6408;59.388;17.798;2022-12-22T08:29:07;5.37;;;1.67;;
12687;SDS011;6408;59.388;17.798;2022-12-22T08:31:39;4.90;;;2.00;;
12687;SDS011;6408;59.388;17.798;2022-12-22T08:34:09;6.33;;;1.50;;
12687;SDS011;6408;59.388;17.798;2022-12-22T08:36:41;4.03;;;1.73;;
12687;SDS011;6408;59.388;17.798;2022-12-22T08:39:13;5.40;;;2.23;;
12687;SDS011;6408;59.388;17.798;2022-12-22T08:41:42;5.27;;;1.60;;
12687;SDS011;6408;59.388;17.798;2022-12-22T08:44:17;4.10;;;1.77;;
12687;SDS011;6408;59.388;17.798;2022-12-22T08:46:46;4.40;;;2.20;;
12687;SDS011;6408;59.388;17.798;2022-12-22T08:49:15;5.47;;;1.70;;
12687;SDS011;6408;59.388;17.798;2022-12-22T08:51:43;2.93;;;1.40;;
12687;SDS011;6408;59.388;17.798;2022-12-22T08:54:13;6.10;;;1.40;;
12687;SDS011;6408;59.388;17.798;2022-12-22T08:56:41;2.23;;;1.10;;
12687;SDS011;6408;59.388;17.798;2022-12-22T08:59:09;3.17;;;1.23;;
12687;SDS011;6408;59.388;17.798;2022-12-22T09:01:39;3.80;;;1.57;;
12687;SDS011;6408;59.388;17.798;2022-12-22T09:04:10;3.47;;;1.00;;
12687;SDS011;6408;59.388;17.798;2022-12-22T09:06:40;3.73;;;1.53;;
12687;SDS011;6408;59.388;17.798;2022-12-22T09:09:10;5.37;;;1.47;;
12687;SDS011;6408;59.388;17.798;2022-12-22T09:11:39;2.17;;;1.90;;
12687;SDS011;6408;59.388;17.798;2022-12-22T09:14:10;4.60;;;1.37;;
12687;SDS011;6408;59.388;17.798;2022-12-22T09:16:39;3.20;;;1.47;;
12687;SDS011;6408;59.388;17.798;2022-12-22T09:19:07;3.73;;;1.47;;
12687;SDS011;6408;59.388;17.798;2022-12-22T09:21:35;3.10;;;1.20;;
12687;SDS011;6408;59.388;17.798;2022-12-22T09:24:04;3.60;;;1.30;;
12687;SDS011;6408;59.388;17.798;2022-12-22T09:26:33;7.03;;;1.50;;
12687;SDS011;6408;59.388;17.798;2022-12-22T09:29:00;4.00;;;1.43;;
12687;SDS011;6408;59.388;17.798;2022-12-22T09:31:28;4.13;;;1.30;;
12687;SDS011;6408;59.388;17.798;2022-12-22T09:33:56;2.57;;;1.20;;
12687;SDS011;6408;59.388;17.798;2022-12-22T09:36:26;5.30;;;1.60;;
12687;SDS011;6408;59.388;17.798;2022-12-22T09:38:56;2.53;;;1.30;;
12687;SDS011;6408;59.388;17.798;2022-12-22T09:41:27;5.93;;;1.50;;
12687;SDS011;6408;59.388;17.798;2022-12-22T09:43:57;3.47;;;1.30;;
12687;SDS011;6408;59.388;17.798;2022-12-22T09:46:28;5.17;;;1.47;;
12687;SDS011;6408;59.388;17.798;2022-12-22T09:48:57;4.10;;;1.50;;
12687;SDS011;6408;59.388;17.798;2022-12-22T09:51:24;3.67;;;1.50;;
12687;SDS011;6408;59.388;17.798;2022-12-22T09:53:53;2.97;;;1.27;;
12687;SDS011;6408;59.388;17.798;2022-12-22T09:56:22;6.90;;;1.20;;
12687;SDS011;6408;59.388;17.798;2022-12-22T09:58:53;3.73;;;1.30;;
12687;SDS011;6408;59.388;17.798;2022-12-22T10:01:31;5.60;;;1.30;;
12687;SDS011;6408;59.388;17.798;2022-12-22T10:04:10;3.63;;;1.30;;
12687;SDS011;6408;59.388;17.798;2022-12-22T10:06:42;1.83;;;1.27;;
12687;SDS011;6408;59.388;17.798;2022-12-22T10:09:18;1.83;;;1.30;;
12687;SDS011;6408;59.388;17.798;2022-12-22T10:11:51;1.67;;;1.10;;
12687;SDS011;6408;59.388;17.798;2022-12-22T10:14:19;4.77;;;1.10;;
12687;SDS011;6408;59.388;17.798;2022-12-22T10:16:48;3.67;;;1.30;;
12687;SDS011;6408;59.388;17.798;2022-12-22T10:19:15;4.13;;;1.47;;
12687;SDS011;6408;59.388;17.798;2022-12-22T10:21:46;3.67;;;1.10;;
12687;SDS011;6408;59.388;17.798;2022-12-22T10:24:15;3.67;;;1.33;;
12687;SDS011;6408;59.388;17.798;2022-12-22T10:26:44;4.33;;;1.30;;
12687;SDS011;6408;59.388;17.798;2022-12-22T10:29:15;3.37;;;1.40;;
12687;SDS011;6408;59.388;17.798;2022-12-22T10:31:55;1.87;;;1.10;;
12687;SDS011;6408;59.388;17.798;2022-12-22T10:34:25;5.47;;;1.27;;
12687;SDS011;6408;59.388;17.798;2022-12-22T10:36:54;5.63;;;1.23;;
12687;SDS011;6408;59.388;17.798;2022-12-22T10:39:26;3.63;;;1.33;;
12687;SDS011;6408;59.388;17.798;2022-12-22T10:41:56;6.30;;;1.30;;
12687;SDS011;6408;59.388;17.798;2022-12-22T10:44:29;6.10;;;1.50;;
12687;SDS011;6408;59.388;17.798;2022-12-22T10:46:59;3.23;;;1.33;;
12687;SDS011;6408;59.388;17.798;2022-12-22T10:49:36;5.83;;;1.30;;
12687;SDS011;6408;59.388;17.798;2022-12-22T10:52:09;3.23;;;1.23;;
12687;SDS011;6408;59.388;17.798;2022-12-22T10:54:40;1.67;;;1.10;;
12687;SDS011;6408;59.388;17.798;2022-12-22T10:57:20;2.27;;;1.10;;
12687;SDS011;6408;59.388;17.798;2022-12-22T10:59:56;3.30;;;1.07;;
12687;SDS011;6408;59.388;17.798;2022-12-22T11:02:30;4.17;;;1.37;;
12687;SDS011;6408;59.388;17.798;2022-12-22T11:05:03;5.73;;;1.40;;
12687;SDS011;6408;59.388;17.798;2022-12-22T11:07:32;3.10;;;1.40;;
12687;SDS011;6408;59.388;17.798;2022-12-22T11:10:01;6.07;;;1.30;;
12687;SDS011;6408;59.388;17.798;2022-12-22T11:12:44;4.20;;;1.40;;
12687;SDS011;6408;59.388;17.798;2022-12-22T11:15:30;3.97;;;1.67;;
12687;SDS011;6408;59.388;17.798;2022-12-22T11:18:06;4.60;;;1.47;;
12687;SDS011;6408;59.388;17.798;2022-12-22T11:20:49;4.43;;;1.27;;
12687;SDS011;6408;59.388;17.798;2022-12-22T11:23:27;4.53;;;1.67;;
12687;SDS011;6408;59.388;17.798;2022-12-22T11:26:04;4.57;;;1.57;;
12687;SDS011;6408;59.388;17.798;2022-12-22T11:28:44;5.17;;;1.70;;
12687;SDS011;6408;59.388;17.798;2022-12-22T11:31:23;5.20;;;1.20;;
12687;SDS011;6408;59.388;17.798;2022-12-22T11:34:02;2.00;;;1.27;;
12687;SDS011;6408;59.388;17.798;2022-12-22T11:36:41;3.53;;;1.40;;
12687;SDS011;6408;59.388;17.798;2022-12-22T11:39:25;5.37;;;1.30;;
12687;SDS011;6408;59.388;17.798;2022-12-22T11:42:06;6.40;;;1.40;;
12687;SDS011;6408;59.388;17.798;2022-12-22T11:45:01;5.97;;;1.40;;
12687;SDS011;6408;59.388;17.798;2022-12-22T11:47:41;5.90;;;1.47;;
12687;SDS011;6408;59.388;17.798;2022-12-22T11:50:28;1.97;;;1.30;;
12687;SDS011;6408;59.388;17.798;2022-12-22T11:53:09;4.23;;;1.67;;
12687;SDS011;6408;59.388;17.798;2022-12-22T11:55:58;4.40;;;1.23;;
12687;SDS011;6408;59.388;17.798;2022-12-22T11:58:40;4.00;;;1.33;;
12687;SDS011;6408;59.388;17.798;2022-12-22T12:01:20;4.87;;;1.37;;
12687;SDS011;6408;59.388;17.798;2022-12-22T12:04:08;4.57;;;1.37;;
12687;SDS011;6408;59.388;17.798;2022-12-22T12:06:53;6.27;;;1.50;;
12687;SDS011;6408;59.388;17.798;2022-12-22T12:09:44;4.20;;;1.40;;
12687;SDS011;6408;59.388;17.798;2022-12-22T12:12:20;6.00;;;1.40;;
12687;SDS011;6408;59.388;17.798;2022-12-22T12:14:54;5.93;;;1.60;;
12687;SDS011;6408;59.388;17.798;2022-12-22T12:17:32;3.63;;;1.47;;
12687;SDS011;6408;59.388;17.798;2022-12-22T12:20:13;2.97;;;1.40;;
12687;SDS011;6408;59.388;17.798;2022-12-22T12:22:58;5.83;;;1.50;;
12687;SDS011;6408;59.388;17.798;2022-12-22T12:25:40;3.20;;;1.40;;
12687;SDS011;6408;59.388;17.798;2022-12-22T12:28:14;3.60;;;1.40;;
12687;SDS011;6408;59.388;17.798;2022-12-22T12:30:50;8.17;;;1.47;;
12687;SDS011;6408;59.388;17.798;2022-12-22T12:33:23;3.77;;;1.60;;
12687;SDS011;6408;59.388;17.798;2022-12-22T12:36:04;2.90;;;1.63;;
12687;SDS011;6408;59.388;17.798;2022-12-22T12:38:40;4.77;;;1.60;;
12687;SDS011;6408;59.388;17.798;2022-12-22T12:41:17;4.37;;;1.70;;
12687;SDS011;6408;59.388;17.798;2022-12-22T12:43:49;3.13;;;1.50;;
12687;SDS011;6408;59.388;17.798;2022-12-22T12:52:21;4.80;;;1.50;;
12687;SDS011;6408;59.388;17.798;2022-12-22T12:55:31;4.83;;;1.77;;
12687;SDS011;6408;59.388;17.798;2022-12-22T12:58:01;2.37;;;1.50;;
12687;SDS011;6408;59.388;17.798;2022-12-22T13:00:40;3.47;;;1.70;;
12687;SDS011;6408;59.388;17.798;2022-12-22T13:03:37;4.70;;;1.60;;
12687;SDS011;6408;59.388;17.798;2022-12-22T13:06:07;3.97;;;1.50;;
12687;SDS011;6408;59.388;17.798;2022-12-22T13:11:43;3.57;;;1.80;;
12687;SDS011;6408;59.388;17.798;2022-12-22T13:14:11;3.20;;;1.50;;
12687;SDS011;6408;59.388;17.798;2022-12-22T13:17:33;5.83;;;2.23;;
12687;SDS011;6408;59.388;17.798;2022-12-22T13:20:10;4.03;;;1.63;;
12687;SDS011;6408;59.388;17.798;2022-12-22T13:22:40;4.07;;;1.97;;
12687;SDS011;6408;59.388;17.798;2022-12-22T13:25:14;4.30;;;1.83;;
12687;SDS011;6408;59.388;17.798;2022-12-22T13:27:42;4.47;;;1.77;;
12687;SDS011;6408;59.388;17.798;2022-12-22T13:30:12;3.53;;;2.23;;
12687;SDS011;6408;59.388;17.798;2022-12-22T13:32:42;4.23;;;1.53;;
12687;SDS011;6408;59.388;17.798;2022-12-22T13:35:13;4.57;;;1.73;;
12687;SDS011;6408;59.388;17.798;2022-12-22T13:37:45;3.73;;;1.83;;
12687;SDS011;6408;59.388;17.798;2022-12-22T13:40:18;3.03;;;1.43;;
12687;SDS011;6408;59.388;17.798;2022-12-22T13:42:47;8.60;;;2.30;;
12687;SDS011;6408;59.388;17.798;2022-12-22T13:45:21;4.67;;;2.00;;
12687;SDS011;6408;59.388;17.798;2022-12-22T13:48:04;3.37;;;1.77;;
12687;SDS011;6408;59.388;17.798;2022-12-22T13:50:36;5.70;;;1.90;;
12687;SDS011;6408;59.388;17.798;2022-12-22T13:53:08;5.27;;;1.80;;
12687;SDS011;6408;59.388;17.798;2022-12-22T13:55:42;4.80;;;1.73;;
12687;SDS011;6408;59.388;17.798;2022-12-22T13:58:18;4.20;;;1.97;;
12687;SDS011;6408;59.388;17.798;2022-12-22T14:00:59;4.13;;;1.63;;
12687;SDS011;6408;59.388;17.798;2022-12-22T14:03:27;3.57;;;1.80;;
12687;SDS011;6408;59.388;17.798;2022-12-22T14:05:55;4.27;;;2.10;;
12687;SDS011;6408;59.388;17.798;2022-12-22T14:08:23;2.27;;;1.80;;
12687;SDS011;6408;59.388;17.798;2022-12-22T14:10:52;4.73;;;1.93;;
12687;SDS011;6408;59.388;17.798;2022-12-22T14:13:27;8.20;;;2.30;;
12687;SDS011;6408;59.388;17.798;2022-12-22T14:15:59;4.00;;;1.83;;
12687;SDS011;6408;59.388;17.798;2022-12-22T14:18:29;4.30;;;1.70;;
12687;SDS011;6408;59.388;17.798;2022-12-22T14:20:58;3.47;;;1.90;;
12687;SDS011;6408;59.388;17.798;2022-12-22T14:23:26;3.93;;;2.00;;
12687;SDS011;6408;59.388;17.798;2022-12-22T14:25:58;6.70;;;2.80;;
12687;SDS011;6408;59.388;17.798;2022-12-22T14:28:28;3.57;;;1.90;;
12687;SDS011;6408;59.388;17.798;2022-12-22T14:30:58;5.17;;;1.93;;
12687;SDS011;6408;59.388;17.798;2022-12-22T14:33:29;5.53;;;1.83;;
12687;SDS011;6408;59.388;17.798;2022-12-22T14:36:10;4.53;;;2.20;;
12687;SDS011;6408;59.388;17.798;2022-12-22T14:38:41;2.27;;;1.63;;
12687;SDS011;6408;59.388;17.798;2022-12-22T14:41:16;6.30;;;3.43;;
12687;SDS011;6408;59.388;17.798;2022-12-22T14:44:04;23.27;;;11.90;;
12687;SDS011;6408;59.388;17.798;2022-12-22T14:46:37;27.83;;;13.83;;
12687;SDS011;6408;59.388;17.798;2022-12-22T14:49:10;27.03;;;14.60;;
12687;SDS011;6408;59.388;17.798;2022-12-22T14:51:50;11.43;;;6.67;;
12687;SDS011;6408;59.388;17.798;2022-12-22T14:54:20;8.33;;;5.00;;
12687;SDS011;6408;59.388;17.798;2022-12-22T14:56:53;8.23;;;3.53;;
12687;SDS011;6408;59.388;17.798;2022-12-22T14:59:26;4.47;;;2.87;;
12687;SDS011;6408;59.388;17.798;2022-12-22T15:01:56;5.83;;;2.40;;
12687;SDS011;6408;59.388;17.798;2022-12-22T15:04:26;6.40;;;2.40;;
12687;SDS011;6408;59.388;17.798;2022-12-22T15:07:03;3.63;;;2.00;;
12687;SDS011;6408;59.388;17.798;2022-12-22T15:09:32;5.50;;;2.40;;
12687;SDS011;6408;59.388;17.798;2022-12-22T15:12:05;6.43;;;2.23;;
12687;SDS011;6408;59.388;17.798;2022-12-22T15:14:37;5.37;;;2.03;;
12687;SDS011;6408;59.388;17.798;2022-12-22T15:17:05;5.27;;;2.57;;
12687;SDS011;6408;59.388;17.798;2022-12-22T15:19:39;6.17;;;2.27;;
12687;SDS011;6408;59.388;17.798;2022-12-22T15:22:07;5.73;;;2.63;;
12687;SDS011;6408;59.388;17.798;2022-12-22T15:24:34;4.13;;;2.50;;
12687;SDS011;6408;59.388;17.798;2022-12-22T15:27:02;3.70;;;1.90;;
12687;SDS011;6408;59.388;17.798;2022-12-22T15:29:31;7.80;;;2.97;;
12687;SDS011;6408;59.388;17.798;2022-12-22T15:31:59;6.37;;;2.97;;
12687;SDS011;6408;59.388;17.798;2022-12-22T15:34:28;5.90;;;2.60;;
12687;SDS011;6408;59.388;17.798;2022-12-22T15:36:57;4.53;;;2.50;;
12687;SDS011;6408;59.388;17.798;2022-12-22T15:39:25;3.37;;;2.00;;
12687;SDS011;6408;59.388;17.798;2022-12-22T15:41:53;3.57;;;2.17;;
12687;SDS011;6408;59.388;17.798;2022-12-22T15:44:20;6.60;;;2.20;;
12687;SDS011;6408;59.388;17.798;2022-12-22T15:46:55;5.43;;;2.47;;